Time,TemperatureF,DewpointF,PressureIn,WindDirection,WindDirectionDegrees,WindSpeedMPH,WindSpeedGustMPH,Humidity,HourlyPrecipIn,Conditions,Clouds,dailyrainin,SolarRadiationWatts/m^2,SoftwareType,DateUTC
2013-01-13 00:04:00,26.8,1.6,29.71,NNE,22,0.0,0.0,30,0.00,,,-99.99,0.0,Linux-Irox,2013-01-13 08:04:00,
2013-01-13 00:14:00,26.4,1.2,29.71,NNE,22,0.0,0.0,30,0.00,,,-99.99,0.0,Linux-Irox,2013-01-13 08:14:00,
2013-01-13 00:24:00,26.4,1.6,29.71,NNE,22,0.0,0.0,31,0.00,,,-99.99,0.0,Linux-Irox,2013-01-13 08:24:00,
2013-01-13 00:34:00,26.4,1.6,29.71,NNE,22,0.0,0.0,31,0.00,,,-99.99,0.0,Linux-Irox,2013-01-13 08:34:00,
2013-01-13 00:44:00,26.4,1.6,29.72,NE,45,0.0,0.0,31,0.00,,,-99.99,0.0,Linux-Irox,2013-01-13 08:44:00,
2013-01-13 00:54:00,26.4,1.6,29.72,NE,45,0.0,0.0,31,0.00,,,-99.99,0.0,Linux-Irox,2013-01-13 08:54:00,
2013-01-13 01:04:00,26.6,1.8,29.72,NNE,22,0.0,0.0,31,0.00,,,-99.99,0.0,Linux-Irox,2013-01-13 09:04:00,
2013-01-13 01:14:00,26.4,1.6,29.72,NNW,337,0.0,0.0,31,0.00,,,-99.99,0.0,Linux-Irox,2013-01-13 09:14:00,
2013-01-13 01:24:00,26.2,1.4,29.72,NE,45,0.0,0.0,31,0.00,,,-99.99,0.0,Linux-Irox,2013-01-13 09:24:00,
2013-01-13 01:34:00,26.1,1.2,29.72,NE,45,0.0,0.0,31,0.00,,,-99.99,0.0,Linux-Irox,2013-01-13 09:34:00,
2013-01-13 01:44:00,25.7,0.9,29.72,NE,45,0.0,0.0,31,0.00,,,-99.99,0.0,Linux-Irox,2013-01-13 09:44:00,
2013-01-13 01:54:00,27.3,2.5,29.72,ENE,67,0.4,0.0,31,0.00,,,-99.99,0.0,Linux-Irox,2013-01-13 09:54:00,
2013-01-13 02:04:00,26.1,0.9,29.72,North,0,0.2,0.0,30,0.00,,,-99.99,0.0,Linux-Irox,2013-01-13 10:04:00,
2013-01-13 02:14:00,25.7,0.5,29.72,North,0,0.0,0.0,30,0.00,,,-99.99,0.0,Linux-Irox,2013-01-13 10:14:00,
2013-01-13 02:24:00,25.2,0.0,29.73,North,0,0.0,0.0,30,0.00,,,-99.99,0.0,Linux-Irox,2013-01-13 10:24:00,
2013-01-13 02:34:00,25.2,0.3,29.73,North,0,0.0,0.0,31,0.00,,,-99.99,0.0,Linux-Irox,2013-01-13 10:34:00,
2013-01-13 02:44:00,25.2,0.3,29.73,North,0,0.0,0.0,31,0.00,,,-99.99,0.0,Linux-Irox,2013-01-13 10:44:00,
2013-01-13 02:54:00,25.2,0.3,29.73,North,0,0.0,0.0,31,0.00,,,-99.99,0.0,Linux-Irox,2013-01-13 10:54:00,
2013-01-13 03:04:00,25.0,0.1,29.73,North,0,0.0,0.0,31,0.00,,,-99.99,0.0,Linux-Irox,2013-01-13 11:04:00,
2013-01-13 03:14:00,24.8,0.0,29.73,North,0,0.0,0.0,31,0.00,,,-99.99,0.0,Linux-Irox,2013-01-13 11:14:00,
2013-01-13 03:24:00,24.8,0.0,29.72,ENE,67,0.0,0.0,31,0.00,,,-99.99,0.0,Linux-Irox,2013-01-13 11:24:00,
2013-01-13 03:34:00,25.2,0.7,29.72,ENE,67,0.0,0.0,32,0.00,,,-99.99,0.0,Linux-Irox,2013-01-13 11:34:00,
2013-01-13 03:44:00,24.6,-0.2,29.72,ENE,67,0.0,0.0,31,0.00,,,-99.99,0.0,Linux-Irox,2013-01-13 11:44:00,
2013-01-13 03:54:00,24.8,0.0,29.72,ENE,67,0.0,0.0,31,0.00,,,-99.99,0.0,Linux-Irox,2013-01-13 11:54:00,
2013-01-13 04:04:00,24.6,-0.2,29.71,ENE,67,0.0,0.0,31,0.00,,,-99.99,0.0,Linux-Irox,2013-01-13 12:04:00,
2013-01-13 04:14:00,25.0,0.1,29.71,ENE,67,0.0,0.0,31,0.00,,,-99.99,0.0,Linux-Irox,2013-01-13 12:14:00,
2013-01-13 04:24:00,24.6,-0.2,29.74,ENE,67,0.0,0.0,31,0.00,,,-99.99,0.0,Linux-Irox,2013-01-13 12:24:00,
2013-01-13 04:34:00,25.3,0.5,29.74,ENE,67,0.0,0.0,31,0.00,,,-99.99,0.0,Linux-Irox,2013-01-13 12:34:00,
2013-01-13 04:44:00,25.3,0.1,29.73,ENE,67,0.0,0.0,30,0.00,,,-99.99,0.0,Linux-Irox,2013-01-13 12:44:00,
2013-01-13 04:54:00,25.0,-0.2,29.73,ENE,67,0.0,0.0,30,0.00,,,-99.99,0.0,Linux-Irox,2013-01-13 12:54:00,
2013-01-13 05:04:00,25.7,0.5,29.73,ENE,67,0.0,1.3,30,0.00,,,-99.99,0.0,Linux-Irox,2013-01-13 13:04:00,
2013-01-13 05:14:00,25.5,-0.4,29.73,East,90,0.0,0.0,28,0.00,,,-99.99,0.0,Linux-Irox,2013-01-13 13:14:00,
2013-01-13 05:24:00,25.7,-0.6,29.74,ENE,67,0.0,0.0,27,0.00,,,-99.99,0.0,Linux-Irox,2013-01-13 13:24:00,
2013-01-13 05:34:00,25.5,-1.1,29.74,ENE,67,0.0,0.0,26,0.00,,,-99.99,0.0,Linux-Irox,2013-01-13 13:34:00,
2013-01-13 05:44:00,26.8,-0.9,29.73,ENE,67,0.9,1.8,23,0.00,,,-99.99,0.0,Linux-Irox,2013-01-13 13:44:00,
2013-01-13 05:54:00,27.0,-1.1,29.73,ESE,112,0.9,1.6,22,0.00,,,-99.99,0.0,Linux-Irox,2013-01-13 13:54:00,
2013-01-13 06:04:00,27.0,-1.5,29.73,ENE,67,1.3,1.6,21,0.00,,,-99.99,0.0,Linux-Irox,2013-01-13 14:04:00,
2013-01-13 06:14:00,26.8,-2.0,29.73,East,90,0.7,0.0,20,0.00,,,-99.99,0.0,Linux-Irox,2013-01-13 14:14:00,
2013-01-13 06:24:00,26.2,-2.2,29.74,East,90,0.0,0.0,21,0.00,,,-99.99,0.0,Linux-Irox,2013-01-13 14:24:00,
2013-01-13 06:34:00,26.1,-2.4,29.74,ESE,112,0.0,0.0,21,0.00,,,-99.99,0.0,Linux-Irox,2013-01-13 14:34:00,
2013-01-13 06:44:00,26.1,-2.4,29.75,ESE,112,0.0,0.0,21,0.00,,,-99.99,0.0,Linux-Irox,2013-01-13 14:44:00,
2013-01-13 06:54:00,26.1,-2.7,29.75,East,90,0.0,0.0,20,0.00,,,-99.99,0.0,Linux-Irox,2013-01-13 14:54:00,
2013-01-13 07:04:00,25.3,-3.1,29.74,East,90,0.0,0.0,21,0.00,,,-99.99,0.0,Linux-Irox,2013-01-13 15:04:00,
2013-01-13 07:14:00,25.2,-3.3,29.74,East,90,0.0,0.0,21,0.00,,,-99.99,0.0,Linux-Irox,2013-01-13 15:14:00,
2013-01-13 07:24:00,25.2,-3.3,29.75,East,90,0.0,0.0,21,0.00,,,-99.99,0.0,Linux-Irox,2013-01-13 15:24:00,
2013-01-13 07:34:00,25.0,-3.1,29.75,East,90,0.0,0.0,22,0.00,,,-99.99,0.0,Linux-Irox,2013-01-13 15:34:00,
2013-01-13 07:44:00,25.0,-3.1,29.75,East,90,0.0,0.0,22,0.00,,,-99.99,0.0,Linux-Irox,2013-01-13 15:44:00,
2013-01-13 07:54:00,25.5,-2.6,29.75,East,90,0.0,0.0,22,0.00,,,-99.99,0.0,Linux-Irox,2013-01-13 15:54:00,
2013-01-13 08:04:00,26.4,-1.7,29.76,East,90,0.0,0.0,22,0.00,,,-99.99,0.0,Linux-Irox,2013-01-13 16:04:00,
2013-01-13 08:14:00,27.5,-0.6,29.76,ENE,67,0.0,0.0,22,0.00,,,-99.99,0.0,Linux-Irox,2013-01-13 16:14:00,
2013-01-13 08:24:00,28.6,0.1,29.75,ENE,67,0.0,0.0,21,0.00,,,-99.99,0.0,Linux-Irox,2013-01-13 16:24:00,
2013-01-13 08:34:00,29.3,0.9,29.75,ENE,67,0.0,0.0,21,0.00,,,-99.99,0.0,Linux-Irox,2013-01-13 16:34:00,
2013-01-13 08:44:00,31.8,3.4,29.76,WSW,247,0.0,0.0,21,0.00,,,-99.99,0.0,Linux-Irox,2013-01-13 16:44:00,
2013-01-13 08:54:00,33.4,3.9,29.76,East,90,0.0,0.9,18,0.00,,,-99.99,0.0,Linux-Irox,2013-01-13 16:54:00,
2013-01-13 09:04:00,34.3,2.7,29.76,ESE,112,0.7,1.1,12,0.00,,,-99.99,0.0,Linux-Irox,2013-01-13 17:04:00,
2013-01-13 09:14:00,35.2,3.6,29.76,ESE,112,0.9,1.6,12,0.00,,,-99.99,0.0,Linux-Irox,2013-01-13 17:14:00,
2013-01-13 09:24:00,36.9,4.8,29.76,East,90,1.3,2.2,11,0.00,,,-99.99,0.0,Linux-Irox,2013-01-13 17:24:00,
2013-01-13 09:31:00,37.6,5.9,29.76,East,90,2.9,4.9,12,0.00,,,-99.99,0.0,Linux-Irox,2013-01-13 17:31:00,
2013-01-13 09:34:00,37.6,5.9,29.76,East,90,0.9,1.6,12,0.00,,,-99.99,0.0,Linux-Irox,2013-01-13 17:34:00,
2013-01-13 09:44:00,38.8,7.2,29.76,ESE,112,0.9,1.3,12,0.00,,,-99.99,0.0,Linux-Irox,2013-01-13 17:44:00,
2013-01-13 09:46:00,38.8,7.2,29.76,ESE,112,2.0,3.1,12,0.00,,,-99.99,0.0,Linux-Irox,2013-01-13 17:46:00,
2013-01-13 09:54:00,39.6,7.5,29.76,ENE,67,0.7,0.0,11,0.00,,,-99.99,0.0,Linux-Irox,2013-01-13 17:54:00,
2013-01-13 10:01:00,40.5,8.4,29.76,SSW,202,0.9,0.0,11,0.00,,,-99.99,0.0,Linux-Irox,2013-01-13 18:01:00,
2013-01-13 10:04:00,39.9,7.9,29.76,ENE,67,0.4,1.8,11,0.00,,,-99.99,0.0,Linux-Irox,2013-01-13 18:04:00,
2013-01-13 10:14:00,39.7,7.7,29.76,ESE,112,0.9,0.0,11,0.00,,,-99.99,0.0,Linux-Irox,2013-01-13 18:14:00,
2013-01-13 10:16:00,39.9,7.9,29.76,WSW,247,2.0,0.0,11,0.00,,,-99.99,0.0,Linux-Irox,2013-01-13 18:16:00,
2013-01-13 10:24:00,40.3,8.2,29.75,ESE,112,0.7,1.8,11,0.00,,,-99.99,0.0,Linux-Irox,2013-01-13 18:24:00,
2013-01-13 10:31:00,41.4,9.3,29.75,East,90,1.8,2.9,11,0.00,,,-99.99,0.0,Linux-Irox,2013-01-13 18:31:00,
2013-01-13 10:34:00,42.1,10.0,29.75,South,180,0.7,0.0,11,0.00,,,-99.99,0.0,Linux-Irox,2013-01-13 18:34:00,
2013-01-13 10:44:00,41.0,9.0,29.75,East,90,0.7,0.0,11,0.00,,,-99.99,0.0,Linux-Irox,2013-01-13 18:44:00,
2013-01-13 10:46:00,41.4,9.3,29.75,WSW,247,1.3,2.7,11,0.00,,,-99.99,0.0,Linux-Irox,2013-01-13 18:46:00,
2013-01-13 10:54:00,42.1,10.0,29.75,West,270,0.7,2.0,11,0.00,,,-99.99,0.0,Linux-Irox,2013-01-13 18:54:00,
2013-01-13 11:01:00,42.8,11.1,29.74,SSW,202,2.0,0.0,12,0.00,,,-99.99,0.0,Linux-Irox,2013-01-13 19:01:00,
2013-01-13 11:04:00,42.1,10.0,29.74,WSW,247,0.9,0.0,11,0.00,,,-99.99,0.0,Linux-Irox,2013-01-13 19:04:00,
2013-01-13 11:14:00,41.7,9.7,29.74,West,270,0.9,2.5,11,0.00,,,-99.99,0.0,Linux-Irox,2013-01-13 19:14:00,
2013-01-13 11:16:00,41.5,9.5,29.74,ESE,112,2.2,4.2,11,0.00,,,-99.99,0.0,Linux-Irox,2013-01-13 19:16:00,
2013-01-13 11:24:00,43.5,11.8,29.73,WSW,247,0.9,2.5,12,0.00,,,-99.99,0.0,Linux-Irox,2013-01-13 19:24:00,
2013-01-13 11:31:00,43.9,12.2,29.73,WSW,247,4.2,4.2,12,0.00,,,-99.99,0.0,Linux-Irox,2013-01-13 19:31:00,
2013-01-13 11:34:00,43.9,12.2,29.73,NW,315,2.0,2.0,12,0.00,,,-99.99,0.0,Linux-Irox,2013-01-13 19:34:00,
2013-01-13 11:44:00,43.3,11.7,29.71,SE,135,1.1,0.0,12,0.00,,,-99.99,0.0,Linux-Irox,2013-01-13 19:44:00,
2013-01-13 11:46:00,43.3,11.7,29.71,WSW,247,2.0,0.0,12,0.00,,,-99.99,0.0,Linux-Irox,2013-01-13 19:46:00,
2013-01-13 11:54:00,44.1,12.4,29.71,WSW,247,1.6,3.6,12,0.00,,,-99.99,0.0,Linux-Irox,2013-01-13 19:54:00,
2013-01-13 12:01:00,42.4,10.4,29.70,NNE,22,3.8,5.8,11,0.00,,,-99.99,0.0,Linux-Irox,2013-01-13 20:01:00,
2013-01-13 12:04:00,42.4,10.4,29.70,NNE,22,1.8,2.7,11,0.00,,,-99.99,0.0,Linux-Irox,2013-01-13 20:04:00,
2013-01-13 12:14:00,42.3,10.2,29.70,ENE,67,0.9,0.0,11,0.00,,,-99.99,0.0,Linux-Irox,2013-01-13 20:14:00,
2013-01-13 12:16:00,41.9,9.9,29.70,East,90,2.2,6.7,11,0.00,,,-99.99,0.0,Linux-Irox,2013-01-13 20:16:00,
2013-01-13 12:24:00,42.8,11.1,29.70,SE,135,1.3,1.8,12,0.00,,,-99.99,0.0,Linux-Irox,2013-01-13 20:24:00,
2013-01-13 12:31:00,43.5,11.8,29.70,NNE,22,3.1,6.0,12,0.00,,,-99.99,0.0,Linux-Irox,2013-01-13 20:31:00,
2013-01-13 12:34:00,43.0,11.3,29.70,WNW,292,1.3,1.3,12,0.00,,,-99.99,0.0,Linux-Irox,2013-01-13 20:34:00,
2013-01-13 12:44:00,42.6,10.6,29.70,South,180,1.8,1.8,11,0.00,,,-99.99,0.0,Linux-Irox,2013-01-13 20:44:00,
2013-01-13 12:46:00,42.8,11.1,29.70,West,270,3.6,3.8,12,0.00,,,-99.99,0.0,Linux-Irox,2013-01-13 20:46:00,
2013-01-13 12:54:00,43.3,11.7,29.70,WSW,247,2.0,2.0,12,0.00,,,-99.99,0.0,Linux-Irox,2013-01-13 20:54:00,
2013-01-13 13:01:00,43.0,11.3,29.69,SSE,157,3.3,3.3,12,0.00,,,-99.99,0.0,Linux-Irox,2013-01-13 21:01:00,
2013-01-13 13:04:00,42.4,10.4,29.69,WSW,247,1.1,2.5,11,0.00,,,-99.99,0.0,Linux-Irox,2013-01-13 21:04:00,
2013-01-13 13:14:00,41.9,9.9,29.69,SW,225,1.1,2.0,11,0.00,,,-99.99,0.0,Linux-Irox,2013-01-13 21:14:00,
2013-01-13 13:16:00,42.3,10.2,29.69,ESE,112,2.7,4.9,11,0.00,,,-99.99,0.0,Linux-Irox,2013-01-13 21:16:00,
2013-01-13 13:24:00,42.6,10.6,29.69,WSW,247,1.1,1.3,11,0.00,,,-99.99,0.0,Linux-Irox,2013-01-13 21:24:00,
2013-01-13 13:31:00,42.6,10.6,29.69,WSW,247,3.3,8.9,11,0.00,,,-99.99,0.0,Linux-Irox,2013-01-13 21:31:00,
2013-01-13 13:34:00,43.5,11.8,29.69,West,270,2.5,5.1,12,0.00,,,-99.99,0.0,Linux-Irox,2013-01-13 21:34:00,
2013-01-13 13:44:00,42.6,10.6,29.68,WSW,247,2.0,2.9,11,0.00,,,-99.99,0.0,Linux-Irox,2013-01-13 21:44:00,
2013-01-13 13:46:00,42.6,10.6,29.68,West,270,3.8,4.0,11,0.00,,,-99.99,0.0,Linux-Irox,2013-01-13 21:46:00,
2013-01-13 13:54:00,43.7,12.0,29.68,WSW,247,2.2,4.7,12,0.00,,,-99.99,0.0,Linux-Irox,2013-01-13 21:54:00,
2013-01-13 14:01:00,43.7,12.0,29.67,WSW,247,6.7,7.4,12,0.00,,,-99.99,0.0,Linux-Irox,2013-01-13 22:01:00,
2013-01-13 14:04:00,43.5,11.8,29.67,SW,225,2.5,2.7,12,0.00,,,-99.99,0.0,Linux-Irox,2013-01-13 22:04:00,
2013-01-13 14:14:00,43.2,11.5,29.67,West,270,1.6,2.0,12,0.00,,,-99.99,0.0,Linux-Irox,2013-01-13 22:14:00,
2013-01-13 14:16:00,43.5,11.8,29.67,NNW,337,3.8,7.1,12,0.00,,,-99.99,0.0,Linux-Irox,2013-01-13 22:16:00,
2013-01-13 14:24:00,42.4,10.4,29.67,North,0,1.6,2.5,11,0.00,,,-99.99,0.0,Linux-Irox,2013-01-13 22:24:00,
2013-01-13 14:31:00,43.0,11.3,29.67,SW,225,4.0,6.2,12,0.00,,,-99.99,0.0,Linux-Irox,2013-01-13 22:31:00,
2013-01-13 14:34:00,43.2,11.5,29.67,WSW,247,2.5,3.6,12,0.00,,,-99.99,0.0,Linux-Irox,2013-01-13 22:34:00,
2013-01-13 14:44:00,42.4,10.4,29.66,West,270,2.2,2.2,11,0.00,,,-99.99,0.0,Linux-Irox,2013-01-13 22:44:00,
2013-01-13 14:46:00,42.3,10.2,29.66,East,90,4.0,4.0,11,0.00,,,-99.99,0.0,Linux-Irox,2013-01-13 22:46:00,
2013-01-13 14:54:00,42.1,10.0,29.66,SW,225,1.1,1.6,11,0.00,,,-99.99,0.0,Linux-Irox,2013-01-13 22:54:00,
2013-01-13 15:01:00,41.7,9.7,29.64,WSW,247,3.1,3.3,11,0.00,,,-99.99,0.0,Linux-Irox,2013-01-13 23:01:00,
2013-01-13 15:04:00,41.5,9.5,29.64,WSW,247,1.3,2.0,11,0.00,,,-99.99,0.0,Linux-Irox,2013-01-13 23:04:00,
2013-01-13 15:14:00,41.7,9.7,29.64,SSE,157,2.5,3.1,11,0.00,,,-99.99,0.0,Linux-Irox,2013-01-13 23:14:00,
2013-01-13 15:16:00,41.5,9.5,29.64,NW,315,6.2,9.1,11,0.00,,,-99.99,0.0,Linux-Irox,2013-01-13 23:16:00,
2013-01-13 15:24:00,41.0,9.0,29.64,East,90,2.7,2.9,11,0.00,,,-99.99,0.0,Linux-Irox,2013-01-13 23:24:00,
2013-01-13 15:31:00,41.0,9.0,29.64,WSW,247,5.1,5.1,11,0.00,,,-99.99,0.0,Linux-Irox,2013-01-13 23:31:00,
2013-01-13 15:34:00,40.8,8.8,29.64,WSW,247,2.9,4.7,11,0.00,,,-99.99,0.0,Linux-Irox,2013-01-13 23:34:00,
2013-01-13 15:44:00,40.3,8.2,29.66,NW,315,2.7,3.6,11,0.00,,,-99.99,0.0,Linux-Irox,2013-01-13 23:44:00,
2013-01-13 15:46:00,40.1,8.1,29.66,NW,315,5.6,5.6,11,0.00,,,-99.99,0.0,Linux-Irox,2013-01-13 23:46:00,
2013-01-13 15:54:00,39.6,7.5,29.66,SW,225,2.0,2.7,11,0.00,,,-99.99,0.0,Linux-Irox,2013-01-13 23:54:00,
2013-01-13 16:01:00,39.2,7.2,29.67,NW,315,3.1,4.5,11,0.00,,,-99.99,0.0,Linux-Irox,2013-01-14 00:01:00,
2013-01-13 16:04:00,39.0,7.3,29.67,SW,225,0.9,0.0,12,0.00,,,-99.99,0.0,Linux-Irox,2013-01-14 00:04:00,
2013-01-13 16:14:00,38.5,6.8,29.67,North,0,0.0,2.0,12,0.00,,,-99.99,0.0,Linux-Irox,2013-01-14 00:14:00,
2013-01-13 16:16:00,38.5,6.8,29.67,SW,225,0.9,6.7,12,0.00,,,-99.99,0.0,Linux-Irox,2013-01-14 00:16:00,
2013-01-13 16:24:00,37.9,6.3,29.66,West,270,0.4,0.0,12,0.00,,,-99.99,0.0,Linux-Irox,2013-01-14 00:24:00,
2013-01-13 16:31:00,37.4,5.7,29.66,East,90,0.7,0.0,12,0.00,,,-99.99,0.0,Linux-Irox,2013-01-14 00:31:00,
2013-01-13 16:34:00,36.9,4.8,29.66,WNW,292,0.2,0.0,11,0.00,,,-99.99,0.0,Linux-Irox,2013-01-14 00:34:00,
2013-01-13 16:44:00,36.0,3.9,29.67,West,270,0.0,0.0,11,0.00,,,-99.99,0.0,Linux-Irox,2013-01-14 00:44:00,
2013-01-13 16:46:00,35.6,3.6,29.67,SSE,157,0.0,0.0,11,0.00,,,-99.99,0.0,Linux-Irox,2013-01-14 00:46:00,
2013-01-13 16:54:00,34.7,3.0,29.67,SW,225,0.0,0.0,12,0.00,,,-99.99,0.0,Linux-Irox,2013-01-14 00:54:00,
2013-01-13 17:01:00,34.3,2.7,29.66,ESE,112,0.0,0.0,12,0.00,,,-99.99,0.0,Linux-Irox,2013-01-14 01:01:00,
2013-01-13 17:04:00,34.0,2.3,29.66,NE,45,0.0,0.0,12,0.00,,,-99.99,0.0,Linux-Irox,2013-01-14 01:04:00,
2013-01-13 17:14:00,33.4,2.1,29.66,NE,45,0.0,0.0,13,0.00,,,-99.99,0.0,Linux-Irox,2013-01-14 01:14:00,
2013-01-13 17:16:00,33.1,1.8,29.66,NNE,22,0.2,0.0,13,0.00,,,-99.99,0.0,Linux-Irox,2013-01-14 01:16:00,
2013-01-13 17:24:00,32.9,1.6,29.67,NNW,337,0.0,1.1,13,0.00,,,-99.99,0.0,Linux-Irox,2013-01-14 01:24:00,
2013-01-13 17:31:00,32.5,1.2,29.67,NNE,22,0.2,0.0,13,0.00,,,-99.99,0.0,Linux-Irox,2013-01-14 01:31:00,
2013-01-13 17:34:00,32.9,1.6,29.67,NNE,22,0.2,1.8,13,0.00,,,-99.99,0.0,Linux-Irox,2013-01-14 01:34:00,
2013-01-13 17:44:00,34.7,3.0,29.68,NNW,337,0.2,0.0,12,0.00,,,-99.99,0.0,Linux-Irox,2013-01-14 01:44:00,
2013-01-13 17:46:00,34.5,2.8,29.68,NNW,337,0.2,0.0,12,0.00,,,-99.99,0.0,Linux-Irox,2013-01-14 01:46:00,
2013-01-13 17:54:00,34.9,2.5,29.68,NW,315,0.0,0.0,10,0.00,,,-99.99,0.0,Linux-Irox,2013-01-14 01:54:00,
2013-01-13 18:01:00,34.3,2.7,29.68,NW,315,0.0,0.0,12,0.00,,,-99.99,0.0,Linux-Irox,2013-01-14 02:01:00,
2013-01-13 18:04:00,35.1,2.7,29.68,NW,315,0.0,0.0,10,0.00,,,-99.99,0.0,Linux-Irox,2013-01-14 02:04:00,
2013-01-13 18:14:00,35.2,2.8,29.68,NNW,337,0.2,1.1,10,0.00,,,-99.99,0.0,Linux-Irox,2013-01-14 02:14:00,
2013-01-13 18:16:00,35.1,2.7,29.68,NNW,337,0.4,2.7,10,0.00,,,-99.99,0.0,Linux-Irox,2013-01-14 02:16:00,
2013-01-13 18:24:00,35.4,3.0,29.69,NNW,337,29.2,29.2,10,0.00,,,-99.99,0.0,Linux-Irox,2013-01-14 02:24:00,
2013-01-13 18:31:00,33.6,1.2,29.69,NNW,337,64.4,64.4,10,0.00,,,-99.99,0.0,Linux-Irox,2013-01-14 02:31:00,
2013-01-13 18:34:00,33.1,0.7,29.69,NNW,337,29.2,29.2,10,0.00,,,-99.99,0.0,Linux-Irox,2013-01-14 02:34:00,
2013-01-13 18:44:00,35.4,3.0,29.69,NNW,337,29.2,29.2,10,0.00,,,-99.99,0.0,Linux-Irox,2013-01-14 02:44:00,
2013-01-13 18:46:00,35.8,3.4,29.69,NNW,337,64.4,64.4,10,0.00,,,-99.99,0.0,Linux-Irox,2013-01-14 02:46:00,
2013-01-13 18:54:00,35.8,3.4,29.69,NNW,337,29.2,29.2,10,0.00,,,-99.99,0.0,Linux-Irox,2013-01-14 02:54:00,
2013-01-13 19:01:00,35.1,2.7,29.68,NNW,337,64.4,64.4,10,0.00,,,-99.99,0.0,Linux-Irox,2013-01-14 03:01:00,
2013-01-13 19:04:00,34.0,1.6,29.68,NNW,337,29.2,29.2,10,0.00,,,-99.99,0.0,Linux-Irox,2013-01-14 03:04:00,
2013-01-13 19:14:00,34.7,2.3,29.68,NNW,337,29.2,29.2,10,0.00,,,-99.99,0.0,Linux-Irox,2013-01-14 03:14:00,
2013-01-13 19:16:00,34.7,2.3,29.68,NNW,337,64.4,64.4,10,0.00,,,-99.99,0.0,Linux-Irox,2013-01-14 03:16:00,
2013-01-13 19:24:00,34.7,2.3,29.68,NNW,337,29.2,29.2,10,0.00,,,-99.99,0.0,Linux-Irox,2013-01-14 03:24:00,
2013-01-13 19:31:00,34.7,2.3,29.68,NNW,337,64.4,64.4,10,0.00,,,-99.99,0.0,Linux-Irox,2013-01-14 03:31:00,
2013-01-13 19:34:00,35.1,2.7,29.68,NNW,337,29.2,29.2,10,0.00,,,-99.99,0.0,Linux-Irox,2013-01-14 03:34:00,
2013-01-13 19:44:00,34.3,1.9,29.70,NNW,337,29.2,29.2,10,0.00,,,-99.99,0.0,Linux-Irox,2013-01-14 03:44:00,
2013-01-13 19:46:00,34.5,2.1,29.70,NNW,337,64.4,64.4,10,0.00,,,-99.99,0.0,Linux-Irox,2013-01-14 03:46:00,
2013-01-13 19:54:00,34.7,2.3,29.70,NNW,337,29.2,29.2,10,0.00,,,-99.99,0.0,Linux-Irox,2013-01-14 03:54:00,
2013-01-13 20:01:00,34.7,2.3,29.71,NNW,337,64.4,64.4,10,0.00,,,-99.99,0.0,Linux-Irox,2013-01-14 04:01:00,
2013-01-13 20:04:00,34.5,2.1,29.71,NNW,337,29.2,29.2,10,0.00,,,-99.99,0.0,Linux-Irox,2013-01-14 04:04:00,
2013-01-13 20:14:00,34.3,1.9,29.71,NNW,337,29.2,29.2,10,0.00,,,-99.99,0.0,Linux-Irox,2013-01-14 04:14:00,
2013-01-13 20:24:00,34.7,2.3,29.71,NNW,337,29.2,29.2,10,0.00,,,-99.99,0.0,Linux-Irox,2013-01-14 04:24:00,
2013-01-13 20:34:00,34.3,1.9,29.71,NNW,337,29.2,29.2,10,0.00,,,-99.99,0.0,Linux-Irox,2013-01-14 04:34:00,
2013-01-13 20:44:00,34.0,1.6,29.71,NNW,337,29.2,29.2,10,0.00,,,-99.99,0.0,Linux-Irox,2013-01-14 04:44:00,
2013-01-13 20:54:00,33.4,1.0,29.71,NNW,337,29.2,29.2,10,0.00,,,-99.99,0.0,Linux-Irox,2013-01-14 04:54:00,
2013-01-13 21:04:00,33.4,1.0,29.71,NNW,337,29.2,29.2,10,0.00,,,-99.99,0.0,Linux-Irox,2013-01-14 05:04:00,
2013-01-13 21:14:00,33.1,0.7,29.71,NNW,337,29.2,29.2,10,0.00,,,-99.99,0.0,Linux-Irox,2013-01-14 05:14:00,
2013-01-13 21:24:00,33.4,1.0,29.70,NNW,337,29.2,29.2,10,0.00,,,-99.99,0.0,Linux-Irox,2013-01-14 05:24:00,
2013-01-13 21:34:00,33.3,0.9,29.70,NNW,337,29.2,29.2,10,0.00,,,-99.99,0.0,Linux-Irox,2013-01-14 05:34:00,
2013-01-13 21:44:00,33.1,0.7,29.69,NNW,337,29.2,29.2,10,0.00,,,-99.99,0.0,Linux-Irox,2013-01-14 05:44:00,
2013-01-13 21:54:00,33.4,1.0,29.69,NNW,337,29.2,29.2,10,0.00,,,-99.99,0.0,Linux-Irox,2013-01-14 05:54:00,
2013-01-13 22:04:00,33.6,1.2,29.69,NNW,337,29.2,29.2,10,0.00,,,-99.99,0.0,Linux-Irox,2013-01-14 06:04:00,
2013-01-13 22:14:00,34.0,1.6,29.69,NNW,337,29.2,29.2,10,0.00,,,-99.99,0.0,Linux-Irox,2013-01-14 06:14:00,
2013-01-13 22:24:00,34.3,1.9,29.69,NNW,337,29.2,29.2,10,0.00,,,-99.99,0.0,Linux-Irox,2013-01-14 06:24:00,
2013-01-13 22:34:00,34.5,2.1,29.69,NNW,337,29.2,29.2,10,0.00,,,-99.99,0.0,Linux-Irox,2013-01-14 06:34:00,
2013-01-13 22:44:00,34.7,2.3,29.70,NNW,337,29.2,29.2,10,0.00,,,-99.99,0.0,Linux-Irox,2013-01-14 06:44:00,
2013-01-13 22:54:00,35.1,2.7,29.70,NNW,337,29.2,29.2,10,0.00,,,-99.99,0.0,Linux-Irox,2013-01-14 06:54:00,
2013-01-13 23:04:00,34.3,1.9,29.70,NNW,337,29.2,29.2,10,0.00,,,-99.99,0.0,Linux-Irox,2013-01-14 07:04:00,
2013-01-13 23:14:00,34.9,2.5,29.70,NNW,337,29.2,29.2,10,0.00,,,-99.99,0.0,Linux-Irox,2013-01-14 07:14:00,
2013-01-13 23:24:00,34.7,2.3,29.71,NNW,337,29.2,29.2,10,0.00,,,-99.99,0.0,Linux-Irox,2013-01-14 07:24:00,
2013-01-13 23:34:00,35.1,2.7,29.71,NNW,337,29.2,29.2,10,0.00,,,-99.99,0.0,Linux-Irox,2013-01-14 07:34:00,
2013-01-13 23:44:00,35.1,2.7,29.70,NNW,337,29.2,29.2,10,0.00,,,-99.99,0.0,Linux-Irox,2013-01-14 07:44:00,
2013-01-13 23:54:00,34.7,2.3,29.70,NNW,337,29.2,29.2,10,0.00,,,-99.99,0.0,Linux-Irox,2013-01-14 07:54:00,